sensor_id;sensor_type;location;lat;lon;timestamp;pressure;altitude;pressure_sealevel;temperature;humidity
12949;BME280;6539;49.476;8.484;2022-08-19T00:01:56;100118.44;;;25.34;52.12
12949;BME280;6539;49.476;8.484;2022-08-19T00:04:27;100113.06;;;25.30;52.43
12949;BME280;6539;49.476;8.484;2022-08-19T00:06:54;100113.06;;;25.41;51.73
12949;BME280;6539;49.476;8.484;2022-08-19T00:09:23;100102.09;;;25.43;51.66
12949;BME280;6539;49.476;8.484;2022-08-19T00:11:50;100084.41;;;25.54;51.12
12949;BME280;6539;49.476;8.484;2022-08-19T00:14:24;100072.94;;;25.57;51.02
12949;BME280;6539;49.476;8.484;2022-08-19T00:16:51;100072.38;;;25.64;51.04
12949;BME280;6539;49.476;8.484;2022-08-19T00:19:20;100070.81;;;25.69;50.21
12949;BME280;6539;49.476;8.484;2022-08-19T00:21:46;100067.72;;;25.78;50.19
12949;BME280;6539;49.476;8.484;2022-08-19T00:24:14;100054.69;;;25.75;50.54
12949;BME280;6539;49.476;8.484;2022-08-19T00:26:42;100066.69;;;25.81;50.38
12949;BME280;6539;49.476;8.484;2022-08-19T00:29:13;100059.81;;;25.77;50.41
12949;BME280;6539;49.476;8.484;2022-08-19T00:31:40;100071.06;;;25.77;50.33
12949;BME280;6539;49.476;8.484;2022-08-19T00:34:09;100070.81;;;25.75;50.50
12949;BME280;6539;49.476;8.484;2022-08-19T00:36:35;100077.22;;;25.69;50.90
12949;BME280;6539;49.476;8.484;2022-08-19T00:39:03;100069.56;;;25.64;50.82
12949;BME280;6539;49.476;8.484;2022-08-19T00:41:34;100067.28;;;25.63;50.90
12949;BME280;6539;49.476;8.484;2022-08-19T00:46:33;100064.97;;;25.61;51.16
12949;BME280;6539;49.476;8.484;2022-08-19T00:49:15;100063.22;;;25.53;51.34
12949;BME280;6539;49.476;8.484;2022-08-19T00:51:48;100061.97;;;25.48;51.45
12949;BME280;6539;49.476;8.484;2022-08-19T00:54:18;100060.13;;;25.56;50.94
12949;BME280;6539;49.476;8.484;2022-08-19T00:56:45;100058.31;;;25.64;50.95
12949;BME280;6539;49.476;8.484;2022-08-19T00:59:12;100058.31;;;25.64;50.52
12949;BME280;6539;49.476;8.484;2022-08-19T01:01:46;100062.41;;;25.63;50.56
12949;BME280;6539;49.476;8.484;2022-08-19T01:04:13;100061.88;;;25.70;50.33
12949;BME280;6539;49.476;8.484;2022-08-19T01:06:41;100072.84;;;25.68;50.65
12949;BME280;6539;49.476;8.484;2022-08-19T01:09:08;100065.47;;;25.65;50.75
12949;BME280;6539;49.476;8.484;2022-08-19T01:11:41;100067.00;;;25.66;50.59
12949;BME280;6539;49.476;8.484;2022-08-19T01:14:10;100057.03;;;25.65;50.42
12949;BME280;6539;49.476;8.484;2022-08-19T01:16:39;100046.81;;;25.68;50.80
12949;BME280;6539;49.476;8.484;2022-08-19T01:19:34;100041.44;;;25.70;50.23
12949;BME280;6539;49.476;8.484;2022-08-19T01:22:19;100051.16;;;25.63;50.70
12949;BME280;6539;49.476;8.484;2022-08-19T01:24:50;100059.34;;;25.61;50.60
12949;BME280;6539;49.476;8.484;2022-08-19T01:27:17;100064.75;;;25.59;50.86
12949;BME280;6539;49.476;8.484;2022-08-19T01:29:45;100073.69;;;25.52;51.17
12949;BME280;6539;49.476;8.484;2022-08-19T01:32:14;100070.16;;;25.46;51.19
12949;BME280;6539;49.476;8.484;2022-08-19T01:34:47;100076.78;;;25.38;51.70
12949;BME280;6539;49.476;8.484;2022-08-19T01:37:15;100074.75;;;25.33;51.82
12949;BME280;6539;49.476;8.484;2022-08-19T01:39:42;100067.09;;;25.33;51.58
12949;BME280;6539;49.476;8.484;2022-08-19T01:42:09;100064.28;;;25.33;51.25
12949;BME280;6539;49.476;8.484;2022-08-19T01:44:40;100071.91;;;25.38;51.50
12949;BME280;6539;49.476;8.484;2022-08-19T01:47:09;100073.19;;;25.43;51.37
12949;BME280;6539;49.476;8.484;2022-08-19T01:49:35;100075.53;;;25.44;51.21
12949;BME280;6539;49.476;8.484;2022-08-19T01:52:05;100069.59;;;25.53;50.74
12949;BME280;6539;49.476;8.484;2022-08-19T01:54:31;100073.16;;;25.59;50.73
12949;BME280;6539;49.476;8.484;2022-08-19T01:57:11;100061.44;;;25.50;51.07
12949;BME280;6539;49.476;8.484;2022-08-19T01:59:40;100070.13;;;25.57;50.69
12949;BME280;6539;49.476;8.484;2022-08-19T02:02:09;100068.31;;;25.54;51.01
12949;BME280;6539;49.476;8.484;2022-08-19T02:04:36;100072.97;;;25.46;51.11
12949;BME280;6539;49.476;8.484;2022-08-19T02:07:05;100062.72;;;25.49;50.91
12949;BME280;6539;49.476;8.484;2022-08-19T02:09:32;100062.72;;;25.49;50.81
12949;BME280;6539;49.476;8.484;2022-08-19T02:11:58;100067.31;;;25.57;50.50
12949;BME280;6539;49.476;8.484;2022-08-19T02:14:24;100062.91;;;25.67;50.50
12949;BME280;6539;49.476;8.484;2022-08-19T02:16:52;100071.38;;;25.62;50.58
12949;BME280;6539;49.476;8.484;2022-08-19T02:19:18;100076.47;;;25.58;50.51
12949;BME280;6539;49.476;8.484;2022-08-19T02:21:44;100070.63;;;25.50;51.00
12949;BME280;6539;49.476;8.484;2022-08-19T02:24:12;100065.25;;;25.41;51.40
12949;BME280;6539;49.476;8.484;2022-08-19T02:26:43;100067.09;;;25.33;51.49
12949;BME280;6539;49.476;8.484;2022-08-19T02:29:08;100068.91;;;25.20;51.81
12949;BME280;6539;49.476;8.484;2022-08-19T02:31:37;100077.88;;;25.07;52.18
12949;BME280;6539;49.476;8.484;2022-08-19T02:34:05;100084.78;;;24.95;52.82
12949;BME280;6539;49.476;8.484;2022-08-19T02:36:33;100096.53;;;24.88;53.06
12949;BME280;6539;49.476;8.484;2022-08-19T02:38:59;100094.50;;;24.88;52.92
12949;BME280;6539;49.476;8.484;2022-08-19T02:41:30;100083.50;;;24.85;53.42
12949;BME280;6539;49.476;8.484;2022-08-19T02:44:03;100082.72;;;24.90;53.04
12949;BME280;6539;49.476;8.484;2022-08-19T02:46:33;100087.84;;;24.86;53.24
12949;BME280;6539;49.476;8.484;2022-08-19T02:49:07;100076.34;;;24.84;53.63
12949;BME280;6539;49.476;8.484;2022-08-19T02:51:41;100081.97;;;24.89;53.04
12949;BME280;6539;49.476;8.484;2022-08-19T02:54:11;100084.00;;;24.89;53.14
12949;BME280;6539;49.476;8.484;2022-08-19T02:56:40;100086.56;;;24.87;53.24
12949;BME280;6539;49.476;8.484;2022-08-19T02:59:07;100072.50;;;24.76;53.11
12949;BME280;6539;49.476;8.484;2022-08-19T03:01:39;100086.25;;;24.74;53.63
12949;BME280;6539;49.476;8.484;2022-08-19T03:04:11;100082.47;;;24.82;53.62
12949;BME280;6539;49.476;8.484;2022-08-19T03:06:40;100081.69;;;24.98;52.62
12949;BME280;6539;49.476;8.484;2022-08-19T03:09:07;100069.97;;;25.06;52.77
12949;BME280;6539;49.476;8.484;2022-08-19T03:11:38;100068.91;;;25.09;52.48
12949;BME280;6539;49.476;8.484;2022-08-19T03:14:08;100066.09;;;25.14;52.34
12949;BME280;6539;49.476;8.484;2022-08-19T03:16:45;100072.72;;;25.22;52.16
12949;BME280;6539;49.476;8.484;2022-08-19T03:19:13;100066.59;;;25.18;52.32
12949;BME280;6539;49.476;8.484;2022-08-19T03:21:47;100055.34;;;25.29;51.72
12949;BME280;6539;49.476;8.484;2022-08-19T03:24:17;100059.69;;;25.36;51.66
12949;BME280;6539;49.476;8.484;2022-08-19T03:26:51;100069.66;;;25.42;51.55
12949;BME280;6539;49.476;8.484;2022-08-19T03:29:21;100071.91;;;25.38;51.58
12949;BME280;6539;49.476;8.484;2022-08-19T03:31:47;100087.00;;;25.35;51.66
12949;BME280;6539;49.476;8.484;2022-08-19T03:34:22;100074.75;;;25.33;51.73
12949;BME280;6539;49.476;8.484;2022-08-19T03:36:48;100076.25;;;25.39;51.32
12949;BME280;6539;49.476;8.484;2022-08-19T03:39:15;100074.50;;;25.42;50.97
12949;BME280;6539;49.476;8.484;2022-08-19T03:41:46;100077.31;;;25.42;51.21
12949;BME280;6539;49.476;8.484;2022-08-19T03:44:16;100083.19;;;25.44;51.19
12949;BME280;6539;49.476;8.484;2022-08-19T03:46:43;100077.53;;;25.55;50.63
12949;BME280;6539;49.476;8.484;2022-08-19T03:49:12;100076.00;;;25.54;50.70
12949;BME280;6539;49.476;8.484;2022-08-19T03:51:42;100073.97;;;25.49;50.71
12949;BME280;6539;49.476;8.484;2022-08-19T03:54:13;100081.16;;;25.44;51.00
12949;BME280;6539;49.476;8.484;2022-08-19T03:56:42;100084.94;;;25.41;51.06
12949;BME280;6539;49.476;8.484;2022-08-19T03:59:23;100090.31;;;25.39;51.17
12949;BME280;6539;49.476;8.484;2022-08-19T04:01:57;100094.94;;;25.26;51.39
12949;BME280;6539;49.476;8.484;2022-08-19T04:04:29;100101.84;;;25.25;51.49
12949;BME280;6539;49.476;8.484;2022-08-19T04:07:00;100090.84;;;25.32;51.19
12949;BME280;6539;49.476;8.484;2022-08-19T04:09:29;100087.00;;;25.35;50.95
12949;BME280;6539;49.476;8.484;2022-08-19T04:11:58;100098.50;;;25.37;50.71
12949;BME280;6539;49.476;8.484;2022-08-19T04:14:28;100099.81;;;25.42;50.80
12949;BME280;6539;49.476;8.484;2022-08-19T04:16:56;100096.19;;;25.41;50.69
12949;BME280;6539;49.476;8.484;2022-08-19T04:19:22;100105.63;;;25.38;50.82
12949;BME280;6539;49.476;8.484;2022-08-19T04:21:52;100101.31;;;25.37;50.90
12949;BME280;6539;49.476;8.484;2022-08-19T04:24:22;100095.72;;;25.32;50.98
12949;BME280;6539;49.476;8.484;2022-08-19T04:26:49;100091.38;;;25.31;51.07
12949;BME280;6539;49.476;8.484;2022-08-19T04:29:22;100090.84;;;25.32;50.93
12949;BME280;6539;49.476;8.484;2022-08-19T04:31:52;100088.03;;;25.32;51.23
12949;BME280;6539;49.476;8.484;2022-08-19T04:34:22;100094.69;;;25.24;51.26
12949;BME280;6539;49.476;8.484;2022-08-19T04:36:51;100086.25;;;25.24;51.67
12949;BME280;6539;49.476;8.484;2022-08-19T04:39:24;100091.88;;;25.29;51.13
12949;BME280;6539;49.476;8.484;2022-08-19T04:42:17;100089.56;;;25.28;51.12
12949;BME280;6539;49.476;8.484;2022-08-19T04:45:04;100082.44;;;25.21;51.66
12949;BME280;6539;49.476;8.484;2022-08-19T04:47:32;100088.59;;;25.14;52.08
12949;BME280;6539;49.476;8.484;2022-08-19T04:50:01;100095.22;;;25.22;51.49
12949;BME280;6539;49.476;8.484;2022-08-19T04:52:27;100088.03;;;25.21;51.69
12949;BME280;6539;49.476;8.484;2022-08-19T04:54:55;100089.09;;;25.13;51.82
12949;BME280;6539;49.476;8.484;2022-08-19T04:57:21;100086.78;;;25.22;51.65
12949;BME280;6539;49.476;8.484;2022-08-19T04:59:47;100098.53;;;25.21;51.76
12949;BME280;6539;49.476;8.484;2022-08-19T05:02:15;100093.72;;;25.10;52.10
12949;BME280;6539;49.476;8.484;2022-08-19T05:04:40;100099.81;;;25.14;51.75
12949;BME280;6539;49.476;8.484;2022-08-19T05:07:09;100098.53;;;25.15;52.17
12949;BME280;6539;49.476;8.484;2022-08-19T05:09:37;100092.91;;;25.15;52.10
12949;BME280;6539;49.476;8.484;2022-08-19T05:12:05;100093.66;;;25.21;51.53
12949;BME280;6539;49.476;8.484;2022-08-19T05:14:33;100092.41;;;25.17;51.65
12949;BME280;6539;49.476;8.484;2022-08-19T05:17:04;100095.72;;;25.15;51.87
12949;BME280;6539;49.476;8.484;2022-08-19T05:19:37;100104.69;;;25.14;51.84
12949;BME280;6539;49.476;8.484;2022-08-19T05:22:22;100120.00;;;25.07;52.51
12949;BME280;6539;49.476;8.484;2022-08-19T05:25:09;100116.94;;;24.99;52.66
12949;BME280;6539;49.476;8.484;2022-08-19T05:27:38;100113.38;;;24.99;52.68
12949;BME280;6539;49.476;8.484;2022-08-19T05:30:07;100117.19;;;24.96;53.04
12949;BME280;6539;49.476;8.484;2022-08-19T05:32:33;100108.50;;;24.94;52.94
12949;BME280;6539;49.476;8.484;2022-08-19T05:34:59;100114.41;;;24.90;53.53
12949;BME280;6539;49.476;8.484;2022-08-19T05:37:27;100121.78;;;24.93;53.41
12949;BME280;6539;49.476;8.484;2022-08-19T05:39:53;100126.13;;;25.00;53.15
12949;BME280;6539;49.476;8.484;2022-08-19T05:42:20;100123.81;;;25.04;53.33
12949;BME280;6539;49.476;8.484;2022-08-19T05:44:47;100130.72;;;25.09;53.11
12949;BME280;6539;49.476;8.484;2022-08-19T05:47:17;100137.13;;;25.20;52.69
12949;BME280;6539;49.476;8.484;2022-08-19T05:49:48;100138.63;;;25.27;52.56
12949;BME280;6539;49.476;8.484;2022-08-19T05:52:18;100142.97;;;25.33;52.68
12949;BME280;6539;49.476;8.484;2022-08-19T05:54:47;100151.94;;;25.48;51.99
12949;BME280;6539;49.476;8.484;2022-08-19T05:57:14;100158.25;;;25.71;51.36
12949;BME280;6539;49.476;8.484;2022-08-19T05:59:40;100162.06;;;25.85;51.57
12949;BME280;6539;49.476;8.484;2022-08-19T06:02:06;100167.41;;;25.88;50.67
12949;BME280;6539;49.476;8.484;2022-08-19T06:04:34;100166.91;;;25.90;50.70
12949;BME280;6539;49.476;8.484;2022-08-19T06:07:03;100177.34;;;25.95;50.67
12949;BME280;6539;49.476;8.484;2022-08-19T06:09:30;100179.44;;;25.89;50.55
12949;BME280;6539;49.476;8.484;2022-08-19T06:11:59;100178.91;;;25.90;50.30
12949;BME280;6539;49.476;8.484;2022-08-19T06:14:29;100183.78;;;25.90;50.51
12949;BME280;6539;49.476;8.484;2022-08-19T06:16:57;100197.84;;;25.90;50.86
12949;BME280;6539;49.476;8.484;2022-08-19T06:19:31;100199.41;;;25.80;51.59
12949;BME280;6539;49.476;8.484;2022-08-19T06:21:58;100197.59;;;25.82;50.98
12949;BME280;6539;49.476;8.484;2022-08-19T06:24:28;100196.56;;;25.91;50.21
12949;BME280;6539;49.476;8.484;2022-08-19T06:26:57;100188.84;;;26.02;49.46
12949;BME280;6539;49.476;8.484;2022-08-19T06:29:25;100196.00;;;26.14;49.29
12949;BME280;6539;49.476;8.484;2022-08-19T06:31:57;100196.47;;;26.18;49.42
12949;BME280;6539;49.476;8.484;2022-08-19T06:34:25;100196.28;;;26.11;49.99
12949;BME280;6539;49.476;8.484;2022-08-19T06:36:53;100202.88;;;26.08;49.87
12949;BME280;6539;49.476;8.484;2022-08-19T06:39:26;100202.94;;;25.97;50.20
12949;BME280;6539;49.476;8.484;2022-08-19T06:41:58;100199.34;;;26.02;50.21
12949;BME280;6539;49.476;8.484;2022-08-19T06:44:32;100198.56;;;26.07;49.90
12949;BME280;6539;49.476;8.484;2022-08-19T06:47:03;100208.22;;;26.22;49.11
12949;BME280;6539;49.476;8.484;2022-08-19T06:49:29;100203.88;;;26.27;49.10
12949;BME280;6539;49.476;8.484;2022-08-19T06:51:57;100202.84;;;26.30;49.06
12949;BME280;6539;49.476;8.484;2022-08-19T06:54:25;100211.53;;;26.32;48.80
12949;BME280;6539;49.476;8.484;2022-08-19T06:56:56;100225.13;;;26.28;49.28
12949;BME280;6539;49.476;8.484;2022-08-19T06:59:25;100224.38;;;26.22;49.78
12949;BME280;6539;49.476;8.484;2022-08-19T07:01:56;100224.13;;;26.14;49.77
12949;BME280;6539;49.476;8.484;2022-08-19T07:04:30;100213.69;;;26.09;50.18
12949;BME280;6539;49.476;8.484;2022-08-19T07:07:10;100216.97;;;26.08;50.18
12949;BME280;6539;49.476;8.484;2022-08-19T07:09:41;100215.72;;;26.09;50.34
12949;BME280;6539;49.476;8.484;2022-08-19T07:12:11;100211.38;;;26.02;50.31
12949;BME280;6539;49.476;8.484;2022-08-19T07:14:38;100206.50;;;25.97;51.06
12949;BME280;6539;49.476;8.484;2022-08-19T07:17:08;100208.56;;;25.97;50.59
12949;BME280;6539;49.476;8.484;2022-08-19T07:19:36;100210.63;;;25.96;51.40
12949;BME280;6539;49.476;8.484;2022-08-19T07:22:08;100222.59;;;26.08;50.74
12949;BME280;6539;49.476;8.484;2022-08-19T07:24:35;100218.47;;;26.25;50.79
12949;BME280;6539;49.476;8.484;2022-08-19T07:27:06;100215.31;;;26.40;50.30
12949;BME280;6539;49.476;8.484;2022-08-19T07:29:37;100221.16;;;26.53;50.28
12949;BME280;6539;49.476;8.484;2022-08-19T07:32:04;100222.03;;;26.83;49.20
12949;BME280;6539;49.476;8.484;2022-08-19T07:34:32;100225.16;;;27.15;48.02
12949;BME280;6539;49.476;8.484;2022-08-19T07:37:09;100225.34;;;27.58;47.36
12949;BME280;6539;49.476;8.484;2022-08-19T07:39:36;100220.94;;;27.86;45.68
12949;BME280;6539;49.476;8.484;2022-08-19T07:42:09;100222.63;;;27.95;46.03
12949;BME280;6539;49.476;8.484;2022-08-19T07:44:38;100225.00;;;27.91;45.10
12949;BME280;6539;49.476;8.484;2022-08-19T07:47:04;100217.59;;;27.88;45.89
12949;BME280;6539;49.476;8.484;2022-08-19T07:49:30;100225.16;;;27.74;45.37
12949;BME280;6539;49.476;8.484;2022-08-19T07:52:05;100220.41;;;27.64;46.19
12949;BME280;6539;49.476;8.484;2022-08-19T07:54:37;100220.28;;;27.75;46.27
12949;BME280;6539;49.476;8.484;2022-08-19T07:57:07;100224.34;;;28.04;46.26
12949;BME280;6539;49.476;8.484;2022-08-19T07:59:34;100220.31;;;28.42;44.20
12949;BME280;6539;49.476;8.484;2022-08-19T08:02:00;100212.94;;;28.57;43.13
12949;BME280;6539;49.476;8.484;2022-08-19T08:04:31;100215.91;;;28.65;43.20
12949;BME280;6539;49.476;8.484;2022-08-19T08:07:16;100215.78;;;28.76;43.95
12949;BME280;6539;49.476;8.484;2022-08-19T08:10:04;100215.75;;;28.95;43.77
12949;BME280;6539;49.476;8.484;2022-08-19T08:12:39;100212.69;;;28.93;43.42
12949;BME280;6539;49.476;8.484;2022-08-19T08:15:13;100209.38;;;29.07;43.80
12949;BME280;6539;49.476;8.484;2022-08-19T08:17:47;100205.09;;;29.19;43.43
12949;BME280;6539;49.476;8.484;2022-08-19T08:20:15;100197.19;;;29.31;42.96
12949;BME280;6539;49.476;8.484;2022-08-19T08:22:46;100201.94;;;29.68;42.37
12949;BME280;6539;49.476;8.484;2022-08-19T08:25:35;100201.41;;;30.22;41.67
12949;BME280;6539;49.476;8.484;2022-08-19T08:28:02;100202.91;;;30.62;40.51
12949;BME280;6539;49.476;8.484;2022-08-19T08:30:31;100216.53;;;30.97;39.65
12949;BME280;6539;49.476;8.484;2022-08-19T08:32:58;100209.91;;;31.15;38.83
12949;BME280;6539;49.476;8.484;2022-08-19T08:35:29;100214.97;;;31.30;39.17
12949;BME280;6539;49.476;8.484;2022-08-19T08:37:55;100215.13;;;31.24;37.99
12949;BME280;6539;49.476;8.484;2022-08-19T08:46:03;100208.97;;;31.54;37.57
12949;BME280;6539;49.476;8.484;2022-08-19T08:51:13;100214.69;;;31.90;36.36
12949;BME280;6539;49.476;8.484;2022-08-19T08:53:42;100217.25;;;32.01;36.03
12949;BME280;6539;49.476;8.484;2022-08-19T08:56:11;100224.72;;;32.11;35.84
12949;BME280;6539;49.476;8.484;2022-08-19T08:59:07;100230.81;;;32.15;36.04
12949;BME280;6539;49.476;8.484;2022-08-19T09:01:37;100227.88;;;32.36;35.40
12949;BME280;6539;49.476;8.484;2022-08-19T09:04:07;100213.16;;;32.45;34.60
12949;BME280;6539;49.476;8.484;2022-08-19T09:07:09;100222.81;;;31.86;35.50
12949;BME280;6539;49.476;8.484;2022-08-19T09:09:47;100220.47;;;31.48;37.06
12949;BME280;6539;49.476;8.484;2022-08-19T09:15:12;100215.84;;;31.66;36.27
12949;BME280;6539;49.476;8.484;2022-08-19T09:17:39;100210.66;;;31.78;36.88
12949;BME280;6539;49.476;8.484;2022-08-19T09:20:23;100219.28;;;31.93;37.12
12949;BME280;6539;49.476;8.484;2022-08-19T09:22:49;100214.09;;;32.12;36.18
12949;BME280;6539;49.476;8.484;2022-08-19T09:25:20;100217.59;;;32.25;35.36
12949;BME280;6539;49.476;8.484;2022-08-19T09:27:49;100216.91;;;32.40;34.80
12949;BME280;6539;49.476;8.484;2022-08-19T09:30:23;100210.63;;;32.34;34.59
12949;BME280;6539;49.476;8.484;2022-08-19T09:32:53;100214.50;;;32.16;35.49
12949;BME280;6539;49.476;8.484;2022-08-19T09:35:24;100216.06;;;32.24;35.82
12949;BME280;6539;49.476;8.484;2022-08-19T09:37:58;100213.22;;;32.24;35.84
12949;BME280;6539;49.476;8.484;2022-08-19T09:40:27;100216.03;;;32.17;34.89
12949;BME280;6539;49.476;8.484;2022-08-19T09:42:59;100216.16;;;31.83;35.51
12949;BME280;6539;49.476;8.484;2022-08-19T09:45:28;100210.22;;;31.45;36.60
12949;BME280;6539;49.476;8.484;2022-08-19T09:47:56;100212.28;;;31.24;36.46
12949;BME280;6539;49.476;8.484;2022-08-19T09:50:23;100210.78;;;30.90;37.36
12949;BME280;6539;49.476;8.484;2022-08-19T09:52:49;100208.16;;;30.58;37.91
12949;BME280;6539;49.476;8.484;2022-08-19T09:55:20;100204.94;;;30.41;38.58
12949;BME280;6539;49.476;8.484;2022-08-19T09:57:48;100212.31;;;30.31;38.25
12949;BME280;6539;49.476;8.484;2022-08-19T10:00:16;100214.06;;;30.21;38.74
12949;BME280;6539;49.476;8.484;2022-08-19T10:02:42;100207.00;;;30.40;39.20
12949;BME280;6539;49.476;8.484;2022-08-19T10:05:14;100213.63;;;30.56;37.77
12949;BME280;6539;49.476;8.484;2022-08-19T10:08:02;100205.59;;;30.34;38.45
12949;BME280;6539;49.476;8.484;2022-08-19T10:10:27;100208.63;;;30.23;39.08
12949;BME280;6539;49.476;8.484;2022-08-19T10:12:53;100214.06;;;30.21;38.40
12949;BME280;6539;49.476;8.484;2022-08-19T10:15:20;100211.56;;;30.17;38.81
12949;BME280;6539;49.476;8.484;2022-08-19T10:17:48;100210.13;;;30.37;38.30
12949;BME280;6539;49.476;8.484;2022-08-19T10:20:16;100212.50;;;30.59;37.94
12949;BME280;6539;49.476;8.484;2022-08-19T10:22:46;100208.81;;;30.84;37.23
12949;BME280;6539;49.476;8.484;2022-08-19T10:25:12;100199.66;;;31.12;36.75
12949;BME280;6539;49.476;8.484;2022-08-19T10:27:42;100205.34;;;31.12;36.24
12949;BME280;6539;49.476;8.484;2022-08-19T10:30:09;100208.19;;;31.12;37.01
12949;BME280;6539;49.476;8.484;2022-08-19T10:32:35;100203.75;;;31.04;36.80
12949;BME280;6539;49.476;8.484;2022-08-19T10:35:03;100197.06;;;30.80;36.94
12949;BME280;6539;49.476;8.484;2022-08-19T10:37:36;100189.75;;;30.51;37.46
12949;BME280;6539;49.476;8.484;2022-08-19T10:40:06;100206.22;;;30.27;38.05
12949;BME280;6539;49.476;8.484;2022-08-19T10:42:34;100206.78;;;30.12;38.36
12949;BME280;6539;49.476;8.484;2022-08-19T10:45:01;100204.81;;;30.07;39.15
12949;BME280;6539;49.476;8.484;2022-08-19T10:47:31;100195.03;;;30.34;38.77
12949;BME280;6539;49.476;8.484;2022-08-19T10:50:00;100187.00;;;30.59;37.71
12949;BME280;6539;49.476;8.484;2022-08-19T10:52:49;100185.09;;;30.74;38.17
12949;BME280;6539;49.476;8.484;2022-08-19T10:55:21;100189.09;;;30.79;37.89
12949;BME280;6539;49.476;8.484;2022-08-19T10:58:16;100184.66;;;31.04;37.90
12949;BME280;6539;49.476;8.484;2022-08-19T11:00:56;100186.06;;;31.31;36.59
12949;BME280;6539;49.476;8.484;2022-08-19T11:03:23;100188.16;;;31.38;36.24
12949;BME280;6539;49.476;8.484;2022-08-19T11:06:05;100188.28;;;31.46;35.97
12949;BME280;6539;49.476;8.484;2022-08-19T11:08:32;100188.63;;;31.42;36.24
12949;BME280;6539;49.476;8.484;2022-08-19T11:11:05;100185.78;;;31.42;36.27
12949;BME280;6539;49.476;8.484;2022-08-19T11:13:36;100177.38;;;31.57;35.96
12949;BME280;6539;49.476;8.484;2022-08-19T11:16:08;100164.31;;;31.54;35.65
12949;BME280;6539;49.476;8.484;2022-08-19T11:18:44;100156.50;;;31.47;35.58
12949;BME280;6539;49.476;8.484;2022-08-19T11:21:35;100147.81;;;31.53;35.43
12949;BME280;6539;49.476;8.484;2022-08-19T11:24:06;100145.94;;;31.55;35.22
12949;BME280;6539;49.476;8.484;2022-08-19T11:26:34;100134.00;;;31.49;35.20
12949;BME280;6539;49.476;8.484;2022-08-19T11:29:04;100134.16;;;31.44;35.18
12949;BME280;6539;49.476;8.484;2022-08-19T11:31:34;100137.97;;;31.46;35.00
12949;BME280;6539;49.476;8.484;2022-08-19T11:34:10;100133.50;;;31.58;33.84
12949;BME280;6539;49.476;8.484;2022-08-19T11:36:42;100134.34;;;31.74;34.05
12949;BME280;6539;49.476;8.484;2022-08-19T11:39:12;100130.81;;;31.89;33.91
12949;BME280;6539;49.476;8.484;2022-08-19T11:41:41;100136.03;;;31.98;33.61
12949;BME280;6539;49.476;8.484;2022-08-19T11:44:13;100131.88;;;32.06;33.44
12949;BME280;6539;49.476;8.484;2022-08-19T11:46:44;100137.19;;;32.10;33.23
12949;BME280;6539;49.476;8.484;2022-08-19T11:49:15;100138.34;;;32.07;33.32
12949;BME280;6539;49.476;8.484;2022-08-19T11:51:42;100129.97;;;31.73;33.82
12949;BME280;6539;49.476;8.484;2022-08-19T11:54:16;100146.94;;;31.37;34.69
12949;BME280;6539;49.476;8.484;2022-08-19T11:56:44;100135.06;;;31.18;35.09
12949;BME280;6539;49.476;8.484;2022-08-19T11:59:11;100128.22;;;31.14;34.92
12949;BME280;6539;49.476;8.484;2022-08-19T12:01:37;100136.19;;;30.95;34.84
12949;BME280;6539;49.476;8.484;2022-08-19T12:04:06;100139.16;;;30.76;35.10
12949;BME280;6539;49.476;8.484;2022-08-19T12:06:33;100143.38;;;30.62;34.97
12949;BME280;6539;49.476;8.484;2022-08-19T12:09:05;100142.34;;;30.72;34.64
12949;BME280;6539;49.476;8.484;2022-08-19T12:11:33;100136.53;;;30.78;34.49
12949;BME280;6539;49.476;8.484;2022-08-19T12:14:01;100135.09;;;30.84;34.24
12949;BME280;6539;49.476;8.484;2022-08-19T12:16:31;100136.47;;;30.70;34.70
12949;BME280;6539;49.476;8.484;2022-08-19T12:18:59;100126.59;;;30.64;33.93
12949;BME280;6539;49.476;8.484;2022-08-19T12:21:34;100128.09;;;30.65;34.32
12949;BME280;6539;49.476;8.484;2022-08-19T12:24:05;100122.56;;;30.80;34.14
12949;BME280;6539;49.476;8.484;2022-08-19T12:26:34;100129.25;;;31.03;32.90
12949;BME280;6539;49.476;8.484;2022-08-19T12:29:05;100127.94;;;31.25;32.41
12949;BME280;6539;49.476;8.484;2022-08-19T12:31:31;100133.94;;;31.21;32.49
12949;BME280;6539;49.476;8.484;2022-08-19T12:34:02;100130.84;;;31.12;33.13
12949;BME280;6539;49.476;8.484;2022-08-19T12:36:28;100132.00;;;30.75;33.77
12949;BME280;6539;49.476;8.484;2022-08-19T12:38:58;100138.59;;;30.57;34.24
12949;BME280;6539;49.476;8.484;2022-08-19T12:41:25;100137.72;;;30.62;33.71
12949;BME280;6539;49.476;8.484;2022-08-19T12:43:51;100136.00;;;30.79;33.13
12949;BME280;6539;49.476;8.484;2022-08-19T12:46:19;100130.13;;;30.77;33.07
12949;BME280;6539;49.476;8.484;2022-08-19T12:48:48;100132.25;;;30.64;33.33
12949;BME280;6539;49.476;8.484;2022-08-19T12:51:20;100128.84;;;30.65;33.32
12949;BME280;6539;49.476;8.484;2022-08-19T12:53:51;100136.34;;;30.76;32.36
12949;BME280;6539;49.476;8.484;2022-08-19T12:56:17;100136.63;;;30.85;32.67
12949;BME280;6539;49.476;8.484;2022-08-19T12:58:44;100145.00;;;30.91;32.26
12949;BME280;6539;49.476;8.484;2022-08-19T13:01:15;100144.53;;;31.00;31.67
12949;BME280;6539;49.476;8.484;2022-08-19T13:03:42;100132.97;;;31.19;31.46
12949;BME280;6539;49.476;8.484;2022-08-19T13:06:10;100140.16;;;30.99;32.05
12949;BME280;6539;49.476;8.484;2022-08-19T13:08:38;100141.31;;;30.83;32.22
12949;BME280;6539;49.476;8.484;2022-08-19T13:11:11;100146.88;;;30.88;31.43
12949;BME280;6539;49.476;8.484;2022-08-19T13:13:45;100148.66;;;30.78;31.23
12949;BME280;6539;49.476;8.484;2022-08-19T13:16:12;100143.75;;;30.79;31.89
12949;BME280;6539;49.476;8.484;2022-08-19T13:18:45;100147.31;;;30.93;31.82
12949;BME280;6539;49.476;8.484;2022-08-19T13:21:20;100143.91;;;31.15;31.36
12949;BME280;6539;49.476;8.484;2022-08-19T13:23:47;100138.50;;;31.24;30.31
12949;BME280;6539;49.476;8.484;2022-08-19T13:26:18;100142.19;;;31.12;31.12
12949;BME280;6539;49.476;8.484;2022-08-19T13:28:46;100144.59;;;30.87;31.43
12949;BME280;6539;49.476;8.484;2022-08-19T13:31:34;100138.34;;;30.68;31.88